createdAt,value
2022-11-24T00:02:29.973Z,2.93
2022-11-24T00:05:17.114Z,6.83
2022-11-24T00:08:04.642Z,3.50
2022-11-24T00:10:51.599Z,11.10
2022-11-24T00:13:40.302Z,2.77
2022-11-24T00:16:29.813Z,8.33
2022-11-24T00:19:19.846Z,6.97
2022-11-24T00:22:06.923Z,2.67
2022-11-24T00:24:53.793Z,4.60
2022-11-24T00:27:40.528Z,1.60
2022-11-24T00:30:27.503Z,3.20
2022-11-24T00:33:14.649Z,3.30
2022-11-24T00:36:03.031Z,7.30
2022-11-24T00:38:53.914Z,2.57
2022-11-24T00:41:41.488Z,7.97
2022-11-24T00:44:28.401Z,3.70
2022-11-24T00:47:15.174Z,3.73
2022-11-24T00:50:02.464Z,4.27
2022-11-24T00:52:51.069Z,7.90
2022-11-24T00:55:38.038Z,4.33
2022-11-24T00:58:25.692Z,14.60
2022-11-24T01:01:14.614Z,12.07
2022-11-24T01:04:02.699Z,7.13
2022-11-24T01:06:49.832Z,6.03
2022-11-24T01:09:38.303Z,5.47
2022-11-24T01:12:25.438Z,1.93
2022-11-24T01:15:12.410Z,3.43
2022-11-24T01:17:59.253Z,10.10
2022-11-24T01:20:46.267Z,8.83
2022-11-24T01:23:33.514Z,6.77
2022-11-24T01:26:23.670Z,8.13
2022-11-24T01:29:13.025Z,6.77
2022-11-24T01:32:00.278Z,1.03
2022-11-24T01:34:46.941Z,1.73
2022-11-24T01:37:33.743Z,6.37
2022-11-24T01:40:20.842Z,4.03
2022-11-24T01:43:19.525Z,6.83
2022-11-24T01:46:16.302Z,10.03
2022-11-24T01:49:10.564Z,4.97
2022-11-24T01:52:01.142Z,8.10
2022-11-24T01:54:52.891Z,10.80
2022-11-24T01:57:44.537Z,3.37
2022-11-24T02:00:34.064Z,7.87
2022-11-24T02:03:24.990Z,2.63
2022-11-24T02:06:14.220Z,13.50
2022-11-24T02:09:07.103Z,19.00
2022-11-24T02:11:56.019Z,5.87
2022-11-24T02:14:45.126Z,4.73
2022-11-24T02:17:33.252Z,11.17
2022-11-24T02:20:20.493Z,5.60
2022-11-24T02:23:15.649Z,5.87
2022-11-24T02:26:12.124Z,3.77
2022-11-24T02:29:00.928Z,6.43
2022-11-24T02:31:52.037Z,13.73
2022-11-24T02:34:38.852Z,5.17
2022-11-24T02:37:25.629Z,8.83
2022-11-24T02:40:15.654Z,10.73
2022-11-24T02:43:08.762Z,14.03
2022-11-24T02:45:58.399Z,8.23
2022-11-24T02:48:45.509Z,8.27
2022-11-24T02:51:34.518Z,5.40
2022-11-24T02:54:21.429Z,4.93
2022-11-24T02:57:09.081Z,7.13
2022-11-24T02:59:55.894Z,7.40
2022-11-24T03:02:44.228Z,11.67
2022-11-24T03:05:31.449Z,7.00
2022-11-24T03:08:18.660Z,5.23
2022-11-24T03:11:05.552Z,7.70
2022-11-24T03:13:52.444Z,12.63
2022-11-24T03:16:40.111Z,9.53
2022-11-24T03:19:28.334Z,9.20
2022-11-24T03:22:16.568Z,20.07
2022-11-24T03:25:03.179Z,15.90
2022-11-24T03:27:50.449Z,5.03
2022-11-24T03:30:37.415Z,7.10
2022-11-24T03:33:24.241Z,5.13
2022-11-24T03:36:12.673Z,2.20
2022-11-24T03:39:00.078Z,14.40
2022-11-24T03:41:46.741Z,7.37
2022-11-24T03:44:34.122Z,4.93
2022-11-24T03:47:21.459Z,8.83
2022-11-24T03:50:10.815Z,6.07
2022-11-24T03:52:59.262Z,7.30
2022-11-24T03:55:45.998Z,5.10
2022-11-24T03:58:33.616Z,7.40
2022-11-24T04:01:20.568Z,4.03
2022-11-24T04:04:07.800Z,6.53
2022-11-24T04:06:54.659Z,7.90
2022-11-24T04:09:43.729Z,2.77
2022-11-24T04:12:45.700Z,4.03
2022-11-24T04:15:32.998Z,13.57
2022-11-24T04:18:20.042Z,12.97
2022-11-24T04:21:07.334Z,9.10
2022-11-24T04:23:54.127Z,9.17
2022-11-24T04:26:42.650Z,13.50
2022-11-24T04:29:29.953Z,7.00
2022-11-24T04:32:16.962Z,2.60
2022-11-24T04:35:04.890Z,6.70
2022-11-24T04:37:51.871Z,5.33
2022-11-24T04:40:39.314Z,10.93
2022-11-24T04:43:27.672Z,7.63
2022-11-24T04:46:14.699Z,5.63
2022-11-24T04:49:02.854Z,6.40
2022-11-24T04:51:49.867Z,1.77
2022-11-24T04:54:36.802Z,6.20
2022-11-24T04:57:25.622Z,11.13
2022-11-24T05:00:15.305Z,8.77
2022-11-24T05:03:02.319Z,9.93
2022-11-24T05:05:49.457Z,5.57
2022-11-24T05:08:36.619Z,8.80
2022-11-24T05:11:23.786Z,10.00
2022-11-24T05:14:10.925Z,11.20
2022-11-24T05:16:59.734Z,6.77
2022-11-24T05:19:47.107Z,23.30
2022-11-24T05:22:33.756Z,3.00
2022-11-24T05:25:20.671Z,6.23
2022-11-24T05:28:10.136Z,4.77
2022-11-24T05:31:00.716Z,10.13
2022-11-24T05:33:49.134Z,3.80
2022-11-24T05:37:01.685Z,12.53
2022-11-24T05:40:10.689Z,4.47
2022-11-24T05:43:00.606Z,5.60
2022-11-24T05:45:47.685Z,6.70
2022-11-24T05:48:35.035Z,8.77
2022-11-24T05:51:23.579Z,4.27
2022-11-24T05:54:10.470Z,7.70
2022-11-24T05:56:57.844Z,8.93
2022-11-24T05:59:44.819Z,1.93
2022-11-24T06:02:31.781Z,11.40
2022-11-24T06:05:19.250Z,4.93
2022-11-24T06:08:07.884Z,6.00
2022-11-24T06:10:54.941Z,5.73
2022-11-24T06:13:43.525Z,8.50
2022-11-24T06:16:30.953Z,6.60
2022-11-24T06:19:18.267Z,8.37
2022-11-24T06:22:08.201Z,5.83
2022-11-24T06:24:56.719Z,3.80
2022-11-24T06:27:44.085Z,5.27
2022-11-24T06:30:31.485Z,5.33
2022-11-24T06:33:19.340Z,5.57
2022-11-24T06:36:08.520Z,3.87
2022-11-24T06:38:55.568Z,4.37
2022-11-24T06:41:44.580Z,4.10
2022-11-24T06:44:32.105Z,2.03
2022-11-24T06:47:19.179Z,7.37
2022-11-24T06:50:09.854Z,2.63
2022-11-24T06:52:57.095Z,0.53
2022-11-24T06:55:45.308Z,6.23
2022-11-24T06:58:35.257Z,0.70
2022-11-24T07:01:24.815Z,3.93
2022-11-24T07:04:12.197Z,1.03
2022-11-24T07:06:58.904Z,0.57
2022-11-24T07:09:46.129Z,0.37
2022-11-24T07:12:36.249Z,0.60
2022-11-24T07:15:24.607Z,6.13
2022-11-24T07:18:11.763Z,11.33
2022-11-24T07:20:58.755Z,1.80
2022-11-24T07:23:45.525Z,3.80
2022-11-24T07:26:37.375Z,4.27
2022-11-24T07:29:24.586Z,4.43
2022-11-24T07:32:12.926Z,5.00
2022-11-24T07:35:00.096Z,2.23
2022-11-24T07:37:47.413Z,1.63
2022-11-24T07:40:34.367Z,3.13
2022-11-24T07:43:21.744Z,6.30
2022-11-24T07:46:12.334Z,2.20
2022-11-24T07:49:01.111Z,2.47
2022-11-24T07:51:48.181Z,2.90
2022-11-24T07:54:35.303Z,0.73
2022-11-24T07:57:23.515Z,0.50
2022-11-24T08:00:13.964Z,0.60
2022-11-24T08:03:01.221Z,2.80
2022-11-24T08:06:22.305Z,0.77
2022-11-24T08:09:03.517Z,1.83
2022-11-24T08:11:50.274Z,3.00
2022-11-24T08:14:37.098Z,0.20
2022-11-24T08:17:24.249Z,0.20
2022-11-24T08:20:12.210Z,0.43
2022-11-24T08:23:00.855Z,0.63
2022-11-24T08:25:50.667Z,0.30
2022-11-24T08:28:39.741Z,0.37
2022-11-24T08:31:33.197Z,0.60
2022-11-24T08:34:20.679Z,0.83
2022-11-24T08:37:08.315Z,2.10
2022-11-24T08:39:57.333Z,6.17
2022-11-24T08:42:45.344Z,2.43
2022-11-24T08:45:35.450Z,3.90
2022-11-24T08:48:26.872Z,2.87
2022-11-24T08:51:15.600Z,4.70
2022-11-24T08:54:03.274Z,1.90
2022-11-24T08:56:52.061Z,1.63
2022-11-24T08:59:39.295Z,1.80
2022-11-24T09:02:26.793Z,5.40
2022-11-24T09:05:43.613Z,2.90
2022-11-24T09:08:21.218Z,3.47
2022-11-24T09:11:10.621Z,4.53
2022-11-24T09:13:59.172Z,0.40
2022-11-24T09:16:46.300Z,4.00
2022-11-24T09:19:33.498Z,1.47
2022-11-24T09:22:20.936Z,3.10
2022-11-24T09:25:08.430Z,2.50
2022-11-24T09:27:56.474Z,2.13
2022-11-24T09:30:45.008Z,6.17
2022-11-24T09:33:32.139Z,5.23
2022-11-24T09:36:19.221Z,2.67
2022-11-24T09:39:06.943Z,7.73
2022-11-24T09:42:14.069Z,5.13
2022-11-24T09:45:35.703Z,2.60
2022-11-24T09:48:34.143Z,4.20
2022-11-24T09:51:25.850Z,8.33
2022-11-24T09:54:17.898Z,4.80
2022-11-24T09:57:07.947Z,5.50
2022-11-24T10:00:00.699Z,2.27
2022-11-24T10:02:50.537Z,2.90
2022-11-24T10:05:39.229Z,4.33
2022-11-24T10:08:40.282Z,3.33
2022-11-24T10:11:36.002Z,5.50
2022-11-24T10:15:02.214Z,1.83
2022-11-24T10:18:14.901Z,4.43
2022-11-24T10:21:22.672Z,3.20
2022-11-24T10:24:26.726Z,3.33
2022-11-24T10:27:18.659Z,5.03
2022-11-24T10:30:15.805Z,2.90
2022-11-24T10:33:09.451Z,7.10
2022-11-24T10:36:00.276Z,6.50
2022-11-24T10:38:57.829Z,4.80
2022-11-24T10:41:52.303Z,7.10
2022-11-24T10:44:40.442Z,3.80
2022-11-24T10:47:27.386Z,2.57
2022-11-24T10:50:22.253Z,3.47
2022-11-24T10:53:17.489Z,4.67
2022-11-24T10:56:07.064Z,2.67
2022-11-24T10:58:54.406Z,5.83
2022-11-24T11:01:41.367Z,2.37
2022-11-24T11:04:30.244Z,4.30
2022-11-24T11:07:20.163Z,5.50
2022-11-24T11:10:21.565Z,4.07
2022-11-24T11:13:24.646Z,2.97
2022-11-24T11:16:25.635Z,7.25
2022-11-24T11:19:48.991Z,6.63
2022-11-24T11:22:39.168Z,6.50
2022-11-24T11:25:30.692Z,6.70
2022-11-24T11:28:29.512Z,5.82
2022-11-24T11:31:22.565Z,6.70
2022-11-24T11:34:28.486Z,5.85
2022-11-24T11:37:18.883Z,4.82
2022-11-24T11:40:16.180Z,2.83
2022-11-24T11:43:07.414Z,4.72
2022-11-24T11:46:03.741Z,4.45
2022-11-24T11:48:51.042Z,6.10
2022-11-24T11:51:55.206Z,2.75
2022-11-24T11:55:15.804Z,4.65
2022-11-24T11:58:20.270Z,1.70
2022-11-24T12:01:23.008Z,5.03
2022-11-24T12:04:25.682Z,5.05
2022-11-24T12:07:40.399Z,3.13
2022-11-24T12:10:37.583Z,3.63
2022-11-24T12:13:51.536Z,2.00
2022-11-24T12:16:49.098Z,6.60
2022-11-24T12:19:50.839Z,6.67
2022-11-24T12:22:46.449Z,1.80
2022-11-24T12:25:39.401Z,2.57
2022-11-24T12:28:48.062Z,4.80
2022-11-24T12:31:46.462Z,5.00
2022-11-24T12:34:44.900Z,1.73
2022-11-24T12:37:54.228Z,4.57
2022-11-24T12:41:18.281Z,4.30
2022-11-24T12:44:12.716Z,3.60
2022-11-24T12:47:15.255Z,2.60
2022-11-24T12:50:09.384Z,2.60
2022-11-24T12:53:00.991Z,4.53
2022-11-24T12:55:49.021Z,2.47
2022-11-24T12:58:43.036Z,8.73
2022-11-24T13:01:37.828Z,4.67
2022-11-24T13:04:35.694Z,1.90
2022-11-24T13:07:29.282Z,2.93
2022-11-24T13:13:59.713Z,4.33
2022-11-24T13:17:21.772Z,3.10
2022-11-24T13:20:23.143Z,6.90
2022-11-24T13:23:26.944Z,0.60
2022-11-24T13:26:30.802Z,2.80
2022-11-24T13:29:41.927Z,9.53
2022-11-24T13:33:03.018Z,4.87
2022-11-24T13:36:29.831Z,2.13
2022-11-24T13:39:22.384Z,2.33
2022-11-24T13:42:44.087Z,7.13
2022-11-24T13:45:51.759Z,6.50
2022-11-24T13:49:01.110Z,4.63
2022-11-24T13:51:48.100Z,4.10
2022-11-24T13:54:41.810Z,3.13
2022-11-24T13:57:35.736Z,3.97
2022-11-24T14:00:24.983Z,2.67
2022-11-24T14:03:21.587Z,2.23
2022-11-24T14:06:32.168Z,3.80
2022-11-24T14:09:28.078Z,0.93
2022-11-24T14:12:19.117Z,2.83
2022-11-24T14:15:24.584Z,3.77
2022-11-24T14:18:22.613Z,4.07
2022-11-24T14:21:27.446Z,2.27
2022-11-24T14:24:24.256Z,6.80
2022-11-24T14:27:18.008Z,3.37
2022-11-24T14:30:18.043Z,3.00
2022-11-24T14:33:06.010Z,1.90
2022-11-24T14:35:53.138Z,2.03
2022-11-24T14:38:40.193Z,4.80
2022-11-24T14:41:28.936Z,5.23
2022-11-24T14:44:22.552Z,1.17
2022-11-24T14:47:19.962Z,3.67
2022-11-24T14:50:14.099Z,4.37
2022-11-24T14:53:02.280Z,7.03
2022-11-24T14:56:09.539Z,4.33
2022-11-24T14:58:57.458Z,3.63
2022-11-24T15:01:45.953Z,1.80
2022-11-24T15:07:44.767Z,1.33
2022-11-24T15:10:36.353Z,1.80
2022-11-24T15:13:25.638Z,2.30
2022-11-24T15:16:19.749Z,5.43
2022-11-24T15:19:17.161Z,8.10
2022-11-24T15:22:28.355Z,1.33
2022-11-24T15:25:33.587Z,1.73
2022-11-24T15:28:24.865Z,1.60
2022-11-24T15:31:13.663Z,3.00
2022-11-24T15:34:00.645Z,6.20
2022-11-24T15:36:49.354Z,10.20
2022-11-24T15:39:36.613Z,2.60
2022-11-24T15:42:23.613Z,5.63
2022-11-24T15:45:12.233Z,5.07
2022-11-24T15:47:59.375Z,7.53
2022-11-24T15:50:46.764Z,3.03
2022-11-24T15:53:37.738Z,3.60
2022-11-24T15:56:30.166Z,4.73
2022-11-24T15:59:37.832Z,11.00
2022-11-24T16:02:55.068Z,5.33
2022-11-24T16:05:45.385Z,9.50
2022-11-24T16:08:32.815Z,19.27
2022-11-24T16:11:21.298Z,4.93
2022-11-24T16:14:08.602Z,5.63
2022-11-24T16:16:55.812Z,8.37
2022-11-24T16:19:43.238Z,5.87
2022-11-24T16:22:31.336Z,7.77
2022-11-24T16:25:20.056Z,6.47
2022-11-24T16:28:08.564Z,5.63
2022-11-24T16:30:55.590Z,7.87
2022-11-24T16:33:44.700Z,7.33
2022-11-24T16:36:31.915Z,3.80
2022-11-24T16:39:18.814Z,4.67
2022-11-24T16:42:06.151Z,3.47
2022-11-24T16:44:54.774Z,3.83
2022-11-24T16:47:43.103Z,9.27
2022-11-24T16:50:30.530Z,6.33
2022-11-24T16:56:49.307Z,8.33
2022-11-24T16:59:36.279Z,4.57
2022-11-24T17:02:23.423Z,4.10
2022-11-24T17:05:10.981Z,4.60
2022-11-24T17:07:59.425Z,10.53
2022-11-24T17:10:46.923Z,6.27
2022-11-24T17:13:36.010Z,14.30
2022-11-24T17:16:25.420Z,5.37
2022-11-24T17:19:13.098Z,4.73
2022-11-24T17:22:00.721Z,7.77
2022-11-24T17:24:47.672Z,13.10
2022-11-24T17:27:34.511Z,9.50
2022-11-24T17:30:23.572Z,4.77
2022-11-24T17:33:10.356Z,10.43
2022-11-24T17:35:57.323Z,5.67
2022-11-24T17:40:12.562Z,10.47
2022-11-24T17:42:54.771Z,6.73
2022-11-24T17:50:05.645Z,6.57
2022-11-24T17:52:52.695Z,4.77
2022-11-24T17:55:40.623Z,10.33
2022-11-24T17:58:28.651Z,4.70
2022-11-24T18:01:22.615Z,1.47
2022-11-24T18:04:10.759Z,8.90
2022-11-24T18:06:59.344Z,6.77
2022-11-24T18:09:46.354Z,8.53
2022-11-24T18:16:43.866Z,4.97
2022-11-24T18:19:30.998Z,5.67
2022-11-24T18:22:36.617Z,2.47
2022-11-24T18:25:27.108Z,5.27
2022-11-24T18:28:13.869Z,3.87
2022-11-24T18:31:05.296Z,5.57
2022-11-24T18:33:52.379Z,7.90
2022-11-24T18:36:39.519Z,2.87
2022-11-24T18:39:29.729Z,4.33
2022-11-24T18:42:16.934Z,9.47
2022-11-24T18:45:04.444Z,8.37
2022-11-24T18:47:51.669Z,5.17
2022-11-24T18:50:38.916Z,5.00
2022-11-24T18:53:27.392Z,4.73
2022-11-24T18:56:17.663Z,11.07
2022-11-24T18:59:05.085Z,6.53
2022-11-24T19:01:52.678Z,12.70
2022-11-24T19:04:39.839Z,12.10
2022-11-24T19:07:26.920Z,9.73
2022-11-24T19:10:16.025Z,9.20
2022-11-24T19:13:04.614Z,13.33
2022-11-24T19:15:52.103Z,7.93
2022-11-24T19:18:39.260Z,7.27
2022-11-24T19:21:26.181Z,9.00
2022-11-24T19:24:13.827Z,3.17
2022-11-24T19:27:00.952Z,9.43
2022-11-24T19:29:51.050Z,10.53
2022-11-24T19:32:38.527Z,9.50
2022-11-24T19:35:25.293Z,19.67
2022-11-24T19:38:15.212Z,15.07
2022-11-24T19:41:04.275Z,10.00
2022-11-24T19:43:53.438Z,6.07
2022-11-24T19:46:42.555Z,2.40
2022-11-24T19:49:29.806Z,11.60
2022-11-24T19:52:17.156Z,11.97
2022-11-24T19:55:04.019Z,9.47
2022-11-24T19:57:51.166Z,8.83
2022-11-24T20:00:38.061Z,8.83
2022-11-24T20:03:26.527Z,15.43
2022-11-24T20:06:15.064Z,6.43
2022-11-24T20:09:02.627Z,6.67
2022-11-24T20:11:49.948Z,13.30
2022-11-24T20:14:37.387Z,19.27
2022-11-24T20:17:24.779Z,19.50
2022-11-24T20:20:14.405Z,21.70
2022-11-24T20:23:01.223Z,11.87
2022-11-24T20:25:48.044Z,49.87
2022-11-24T20:28:35.306Z,15.07
2022-11-24T20:31:25.051Z,6.83
2022-11-24T20:34:12.568Z,7.90
2022-11-24T20:37:01.063Z,17.07
2022-11-24T20:39:48.433Z,8.00
2022-11-24T20:42:37.369Z,15.63
2022-11-24T20:45:24.352Z,12.93
2022-11-24T20:48:11.263Z,29.60
2022-11-24T20:51:03.264Z,12.07
2022-11-24T20:53:53.473Z,14.60
2022-11-24T20:56:42.561Z,16.10
2022-11-24T20:59:29.800Z,46.50
2022-11-24T21:02:17.073Z,83.33
2022-11-24T21:05:04.231Z,144.57
2022-11-24T21:07:51.081Z,238.60
2022-11-24T21:10:39.752Z,146.27
2022-11-24T21:13:27.443Z,109.57
2022-11-24T21:16:16.576Z,258.70
2022-11-24T21:19:07.556Z,78.40
2022-11-24T21:21:54.579Z,117.50
2022-11-24T21:24:41.615Z,142.93
2022-11-24T21:27:29.874Z,79.20
2022-11-24T21:30:17.761Z,108.93
2022-11-24T21:33:04.484Z,117.00
2022-11-24T21:35:51.263Z,76.47
2022-11-24T21:38:38.559Z,95.30
2022-11-24T21:41:27.544Z,79.13
2022-11-24T21:44:16.515Z,53.60
2022-11-24T21:47:04.544Z,77.87
2022-11-24T21:49:53.004Z,143.37
2022-11-24T21:52:40.195Z,102.13
2022-11-24T21:55:27.649Z,40.67
2022-11-24T21:58:14.983Z,70.83
2022-11-24T22:01:09.398Z,61.27
2022-11-24T22:03:56.805Z,31.10
2022-11-24T22:06:44.838Z,5.00
2022-11-24T22:09:31.684Z,10.73
2022-11-24T22:12:19.287Z,12.10
2022-11-24T22:15:07.699Z,5.80
2022-11-24T22:17:56.213Z,4.73
2022-11-24T22:20:43.106Z,12.07
2022-11-24T22:23:30.773Z,2.67
2022-11-24T22:26:18.997Z,7.00
2022-11-24T22:29:06.120Z,10.13
2022-11-24T22:31:53.361Z,10.43
2022-11-24T22:34:42.272Z,5.43
2022-11-24T22:37:29.209Z,3.57
2022-11-24T22:40:16.152Z,23.07
2022-11-24T22:43:03.092Z,12.20
2022-11-24T22:45:51.023Z,17.43
2022-11-24T22:48:38.650Z,2.23
2022-11-24T22:51:28.949Z,13.50
2022-11-24T22:54:15.879Z,28.77
2022-11-24T22:57:02.674Z,74.20
2022-11-24T22:59:49.405Z,6.13
2022-11-24T23:02:37.279Z,11.17
2022-11-24T23:05:24.434Z,24.30
2022-11-24T23:08:13.161Z,8.33
2022-11-24T23:11:01.424Z,6.77
2022-11-24T23:13:48.968Z,3.77
2022-11-24T23:16:35.827Z,15.70
2022-11-24T23:19:22.959Z,16.03
2022-11-24T23:22:10.351Z,34.77
2022-11-24T23:24:58.673Z,58.63
2022-11-24T23:27:45.804Z,9.83
2022-11-24T23:30:32.739Z,23.03
2022-11-24T23:33:20.185Z,30.43
2022-11-24T23:36:09.425Z,20.57
2022-11-24T23:38:56.816Z,11.83
2022-11-24T23:41:45.039Z,2.77
2022-11-24T23:44:31.991Z,18.53
2022-11-24T23:47:18.733Z,26.03
2022-11-24T23:50:08.606Z,69.80
2022-11-24T23:52:55.808Z,2.07
2022-11-24T23:55:42.590Z,3.37
2022-11-24T23:58:31.443Z,5.53
